Time;durP1;ratioP1;P1;durP2;ratioP2;P2;SDS_P1;SDS_P2;PMS_P1;PMS_P2;Temp;Humidity;BMP_temperature;BMP_pressure;BME280_temperature;BME280_humidity;BME280_pressure;Samples;Min_cycle;Max_cycle;Signal;HPM_P1;HPM_P2
2021/06/22 00:00:19;;;;;;;3.22;1.75;;;;;;;18.89;86.08;95976.88;5093039;28;20047;-73
2021/06/22 00:02:47;;;;;;;2.22;1.50;;;;;;;18.85;85.81;95963.38;5093288;28;20051;-73
2021/06/22 00:05:18;;;;;;;3.63;1.88;;;;;;;18.84;86.03;95961.78;5091948;28;20036;-73
2021/06/22 00:07:52;;;;;;;1.83;1.50;;;;;;;18.81;85.77;95963.13;5078891;28;20032;-73
2021/06/22 00:10:23;;;;;;;1.73;1.63;;;;;;;18.79;85.95;95965.31;5093572;28;20032;-73
2021/06/22 00:12:51;;;;;;;2.30;1.70;;;;;;;18.75;85.62;95964.25;5093068;28;20043;-72
2021/06/22 00:15:21;;;;;;;3.97;1.75;;;;;;;18.71;85.66;95971.19;5093278;28;20032;-73
2021/06/22 00:17:49;;;;;;;1.63;1.52;;;;;;;18.67;85.60;95970.97;5093039;28;20035;-73
2021/06/22 00:20:19;;;;;;;2.70;1.42;;;;;;;18.66;85.38;95973.91;5092768;28;20032;-74
2021/06/22 00:22:48;;;;;;;2.65;1.52;;;;;;;18.62;85.52;95978.97;5093529;28;20093;-73
2021/06/22 00:25:17;;;;;;;1.38;1.27;;;;;;;18.58;85.28;95975.31;5093212;28;20455;-73
2021/06/22 00:27:45;;;;;;;1.75;1.30;;;;;;;18.57;85.38;95981.69;5092773;28;20372;-73
2021/06/22 00:30:14;;;;;;;2.85;1.38;;;;;;;18.55;85.33;95967.09;5093043;28;20036;-72
2021/06/22 00:32:42;;;;;;;2.05;1.60;;;;;;;18.50;85.14;95962.63;5093810;28;20463;-73
2021/06/22 00:35:10;;;;;;;2.38;1.40;;;;;;;18.47;85.11;95947.25;5096846;28;20035;-72
2021/06/22 00:37:39;;;;;;;1.58;1.42;;;;;;;18.43;84.85;95939.03;5096661;28;20499;-73
2021/06/22 00:40:07;;;;;;;1.50;1.40;;;;;;;18.40;85.06;95936.19;5096207;28;20044;-73
2021/06/22 00:42:36;;;;;;;2.10;1.60;;;;;;;18.38;84.54;95947.06;5096773;28;20040;-74
2021/06/22 00:45:05;;;;;;;1.60;1.50;;;;;;;18.37;84.67;95950.81;5096761;28;20055;-72
2021/06/22 00:47:32;;;;;;;3.50;2.10;;;;;;;18.32;84.58;95953.50;5096608;28;20028;-72
2021/06/22 00:50:01;;;;;;;1.65;1.55;;;;;;;18.29;84.67;95964.69;5096800;28;20036;-74
2021/06/22 00:52:30;;;;;;;3.72;1.75;;;;;;;18.25;84.78;95963.66;5080004;28;20032;-73
2021/06/22 00:54:58;;;;;;;2.22;1.60;;;;;;;18.19;84.78;95952.28;5096503;28;20052;-73
2021/06/22 00:57:26;;;;;;;1.85;1.67;;;;;;;18.16;84.64;95944.88;5096234;28;20047;-73
2021/06/22 00:59:54;;;;;;;2.05;1.70;;;;;;;18.15;84.73;95945.16;5095761;28;20048;-73
2021/06/22 01:02:22;;;;;;;3.47;1.63;;;;;;;18.14;84.94;95949.69;5096649;28;20047;-73
2021/06/22 01:04:49;;;;;;;3.30;2.08;;;;;;;18.13;84.91;95957.91;5095267;28;20028;-73
2021/06/22 01:07:18;;;;;;;2.00;1.90;;;;;;;18.12;84.76;95959.78;5094974;28;20093;-73
2021/06/22 01:09:46;;;;;;;2.67;2.25;;;;;;;18.11;85.10;95955.53;5095867;28;20044;-73
2021/06/22 01:12:14;;;;;;;2.40;2.30;;;;;;;18.11;85.01;95952.88;5095363;28;20044;-73
2021/06/22 01:14:43;;;;;;;3.45;2.75;;;;;;;18.10;85.11;95947.84;5096348;28;20055;-73
2021/06/22 01:17:11;;;;;;;3.70;2.40;;;;;;;18.11;85.34;95944.13;5094947;28;20475;-73
2021/06/22 01:19:38;;;;;;;2.53;2.17;;;;;;;18.11;85.40;95950.22;5095474;28;20048;-72
2021/06/22 01:22:07;;;;;;;2.83;2.20;;;;;;;18.12;85.46;95956.31;5095589;28;20496;-73
2021/06/22 01:24:35;;;;;;;2.65;2.20;;;;;;;18.10;85.57;95953.97;5095801;28;20040;-72
2021/06/22 01:27:03;;;;;;;5.25;2.08;;;;;;;18.10;85.66;95959.28;5093688;28;20052;-73
2021/06/22 01:29:31;;;;;;;2.42;2.20;;;;;;;18.10;85.70;95964.56;5095609;28;21070;-73
2021/06/22 01:31:59;;;;;;;4.32;2.20;;;;;;;18.13;85.59;95965.88;5096016;28;20032;-72
2021/06/22 01:34:30;;;;;;;3.53;2.65;;;;;;;18.13;86.02;95979.16;5095201;28;20472;-73
2021/06/22 01:36:59;;;;;;;2.30;2.20;;;;;;;18.14;85.83;95976.22;5095063;28;20040;-71
2021/06/22 01:39:27;;;;;;;3.58;3.20;;;;;;;18.14;86.15;95978.06;5095333;28;20040;-73
2021/06/22 01:41:55;;;;;;;5.15;4.05;;;;;;;18.10;86.50;95975.19;5094183;28;20043;-73
2021/06/22 01:44:27;;;;;;;3.22;3.00;;;;;;;18.06;86.36;95974.16;5095290;28;20051;-73
2021/06/22 01:46:55;;;;;;;3.95;3.63;;;;;;;18.04;86.53;95973.66;5094985;28;20158;-73
2021/06/22 01:49:23;;;;;;;3.97;3.15;;;;;;;18.01;86.67;95974.19;5095643;28;20040;-73
2021/06/22 01:51:51;;;;;;;3.88;3.58;;;;;;;17.99;86.84;95969.16;5095086;28;20040;-73
2021/06/22 01:54:20;;;;;;;3.53;3.13;;;;;;;17.98;86.83;95967.56;5094265;28;20483;-73
2021/06/22 01:56:50;;;;;;;4.40;3.60;;;;;;;17.97;87.47;95971.28;5096058;28;20404;-73
2021/06/22 01:59:18;;;;;;;4.63;3.50;;;;;;;17.96;87.41;95982.97;5094955;28;20036;-73
2021/06/22 02:01:46;;;;;;;4.57;4.18;;;;;;;17.93;87.53;95972.94;5095461;28;20024;-72
2021/06/22 02:04:16;;;;;;;4.10;3.80;;;;;;;17.92;87.74;95971.31;5094711;28;20051;-73
2021/06/22 02:06:44;;;;;;;4.28;3.83;;;;;;;17.91;87.84;95972.41;5094720;28;20036;-73
2021/06/22 02:09:12;;;;;;;4.03;3.72;;;;;;;17.91;88.10;95979.56;5094806;28;20403;-72
2021/06/22 02:11:39;;;;;;;4.35;3.95;;;;;;;17.89;88.26;95971.91;5092903;28;20048;-73
2021/06/22 02:14:07;;;;;;;3.45;3.25;;;;;;;17.89;88.06;95971.06;5094816;28;20036;-73
2021/06/22 02:16:35;;;;;;;3.78;3.47;;;;;;;17.89;88.60;95971.91;5094785;28;20035;-73
2021/06/22 02:19:03;;;;;;;3.60;3.30;;;;;;;17.90;88.36;95970.03;5094653;28;20028;-73
2021/06/22 02:21:30;;;;;;;3.38;3.13;;;;;;;17.93;88.43;95972.13;5093359;28;20456;-73
2021/06/22 02:23:58;;;;;;;3.22;2.92;;;;;;;17.92;88.71;95963.38;5094537;28;20036;-73
2021/06/22 02:26:26;;;;;;;2.75;2.55;;;;;;;17.93;88.57;95959.66;5093365;28;20036;-73
2021/06/22 02:28:53;;;;;;;2.90;2.70;;;;;;;17.94;88.49;95965.75;5094808;28;20048;-73
2021/06/22 02:31:21;;;;;;;3.60;3.30;;;;;;;17.95;88.43;95972.63;5093974;28;20048;-73
2021/06/22 02:33:49;;;;;;;3.75;3.45;;;;;;;17.93;88.26;95966.81;5093781;28;20049;-73
2021/06/22 02:36:19;;;;;;;3.10;2.90;;;;;;;17.91;88.64;95960.97;5094766;28;20028;-73
2021/06/22 02:38:47;;;;;;;3.72;3.42;;;;;;;17.89;88.44;95957.81;5094822;28;20039;-75
2021/06/22 02:41:15;;;;;;;3.25;2.97;;;;;;;17.89;88.57;95958.63;5094333;28;20047;-74
2021/06/22 02:43:43;;;;;;;3.05;2.80;;;;;;;17.89;88.67;95955.16;5094485;28;20036;-74
2021/06/22 02:46:10;;;;;;;2.55;2.35;;;;;;;17.89;88.92;95960.47;5093607;28;20051;-74
2021/06/22 02:48:38;;;;;;;2.72;2.53;;;;;;;17.89;88.92;95953.31;5094475;28;20044;-74
2021/06/22 02:51:06;;;;;;;2.80;2.60;;;;;;;17.89;88.96;95955.97;5093526;28;20055;-74
2021/06/22 02:53:34;;;;;;;3.97;2.83;;;;;;;17.89;88.76;95955.97;5093619;28;20044;-74
2021/06/22 02:56:02;;;;;;;2.55;2.45;;;;;;;17.89;88.68;95955.97;5092601;28;20063;-74
2021/06/22 02:58:30;;;;;;;3.97;2.70;;;;;;;17.89;88.83;95961.28;5093439;28;20044;-74
2021/06/22 03:00:57;;;;;;;2.67;2.47;;;;;;;17.90;89.06;95956.75;5093544;28;20051;-73
2021/06/22 03:03:25;;;;;;;2.10;2.00;;;;;;;17.90;88.81;95954.09;5094034;28;20039;-75
2021/06/22 03:05:53;;;;;;;3.80;2.50;;;;;;;17.90;88.93;95954.91;5094537;28;20498;-72
2021/06/22 03:08:19;;;;;;;3.15;2.22;;;;;;;17.88;88.61;95958.91;5094294;28;20032;-73
2021/06/22 03:10:46;;;;;;;2.47;2.28;;;;;;;17.87;88.86;95947.50;5094085;28;20388;-73
2021/06/22 03:13:12;;;;;;;2.53;2.33;;;;;;;17.87;88.74;95952.81;5093674;28;20035;-73
2021/06/22 03:15:38;;;;;;;2.08;1.95;;;;;;;17.83;88.78;95943.81;5093733;28;20031;-74
2021/06/22 03:18:04;;;;;;;2.75;2.50;;;;;;;17.82;88.97;95943.00;5093949;28;20047;-72
2021/06/22 03:20:31;;;;;;;2.25;2.15;;;;;;;17.80;88.84;95937.16;5092274;28;20044;-73
2021/06/22 03:22:57;;;;;;;2.30;2.10;;;;;;;17.79;88.93;95932.94;5094033;28;20070;-73
2021/06/22 03:25:23;;;;;;;2.42;1.92;;;;;;;17.78;88.68;95933.19;5093050;28;20052;-74
2021/06/22 03:27:49;;;;;;;2.78;1.90;;;;;;;17.72;88.47;95932.44;5093158;28;20516;-74
2021/06/22 03:30:16;;;;;;;1.60;1.50;;;;;;;17.74;88.97;95929.50;5093395;28;20039;-74
2021/06/22 03:32:45;;;;;;;3.70;2.45;;;;;;;17.73;89.06;95928.72;5093413;28;20036;-73
2021/06/22 03:35:12;;;;;;;1.90;1.80;;;;;;;17.75;89.31;95936.41;5092970;28;20422;-73
2021/06/22 03:37:39;;;;;;;1.77;1.67;;;;;;;17.77;89.07;95934.28;5093448;28;20403;-73
2021/06/22 03:40:06;;;;;;;2.13;1.65;;;;;;;17.75;89.14;95933.75;5093065;28;20036;-74
2021/06/22 03:42:36;;;;;;;2.40;1.83;;;;;;;17.77;89.40;95928.97;5093373;28;20039;-73
2021/06/22 03:45:08;;;;;;;2.33;2.13;;;;;;;17.77;89.25;95927.09;5092980;28;20040;-72
2021/06/22 03:47:34;;;;;;;1.88;1.60;;;;;;;17.77;89.24;95927.09;5093323;28;20040;-73
2021/06/22 03:50:01;;;;;;;2.38;1.80;;;;;;;17.77;89.27;95915.72;5093365;28;20055;-73
2021/06/22 03:52:28;;;;;;;2.35;1.95;;;;;;;17.76;89.08;95930.81;5093366;28;20036;-73
2021/06/22 03:54:54;;;;;;;2.80;1.63;;;;;;;17.77;89.01;95928.97;5092842;28;20051;-73
2021/06/22 03:57:20;;;;;;;1.70;1.60;;;;;;;17.80;89.06;95920.44;5093657;28;20040;-73
2021/06/22 03:59:46;;;;;;;2.08;1.40;;;;;;;17.80;89.14;95910.63;5092984;28;20047;-73
2021/06/22 04:02:12;;;;;;;1.95;1.63;;;;;;;17.79;88.99;95913.59;5093246;28;20044;-72
2021/06/22 04:04:39;;;;;;;4.15;1.80;;;;;;;17.80;88.99;95915.16;5093199;28;20476;-73
2021/06/22 04:07:05;;;;;;;1.88;1.45;;;;;;;17.80;88.77;95915.94;5094402;28;20035;-73
2021/06/22 04:09:31;;;;;;;1.60;1.33;;;;;;;17.81;88.73;95912.22;5097007;28;20044;-73
2021/06/22 04:11:58;;;;;;;1.80;1.70;;;;;;;17.82;88.80;95915.66;5096942;28;20044;-72
2021/06/22 04:14:24;;;;;;;3.28;1.60;;;;;;;17.82;88.51;95913.00;5097059;28;20039;-72
2021/06/22 04:16:50;;;;;;;2.75;1.50;;;;;;;17.78;88.37;95917.28;5097802;28;20032;-72
2021/06/22 04:19:16;;;;;;;1.90;1.17;;;;;;;17.78;88.36;95927.88;5097192;28;20044;-72
2021/06/22 04:21:43;;;;;;;1.30;1.30;;;;;;;17.79;88.53;95924.97;5097110;28;20050;-72
2021/06/22 04:24:09;;;;;;;1.67;1.45;;;;;;;17.81;88.36;95922.06;5096731;28;20043;-71
2021/06/22 04:26:35;;;;;;;1.58;1.48;;;;;;;17.81;88.26;95920.19;5096967;28;20491;-72
2021/06/22 04:29:02;;;;;;;1.92;1.70;;;;;;;17.84;88.33;95916.22;5096843;28;20047;-72
2021/06/22 04:31:30;;;;;;;2.72;1.98;;;;;;;17.85;88.24;95912.50;5095988;28;20502;-72
2021/06/22 04:33:56;;;;;;;2.10;2.00;;;;;;;17.84;88.42;95911.69;5096770;28;20040;-72
2021/06/22 04:36:22;;;;;;;2.20;2.08;;;;;;;17.81;87.96;95916.75;5096773;28;20040;-72
2021/06/22 04:38:48;;;;;;;3.45;2.10;;;;;;;17.77;88.29;95919.16;5096616;28;20528;-72
2021/06/22 04:41:14;;;;;;;1.63;1.52;;;;;;;17.81;88.42;95927.34;5096651;28;20392;-72
2021/06/22 04:43:41;;;;;;;4.15;2.10;;;;;;;17.81;88.56;95917.53;5096695;28;20032;-72
2021/06/22 04:46:07;;;;;;;2.50;1.77;;;;;;;17.83;88.60;95918.06;5096520;28;20044;-73
2021/06/22 04:48:33;;;;;;;2.92;1.70;;;;;;;17.86;88.57;95922.03;5096861;28;20047;-72
2021/06/22 04:50:59;;;;;;;3.92;1.98;;;;;;;17.84;88.34;95922.31;5096628;28;20051;-73
2021/06/22 04:53:26;;;;;;;7.10;2.50;;;;;;;17.84;88.36;95926.81;5096266;28;20040;-73
2021/06/22 04:55:53;;;;;;;1.75;1.65;;;;;;;17.83;88.77;95938.50;5096672;28;20056;-72
2021/06/22 04:58:19;;;;;;;2.00;1.83;;;;;;;17.83;88.60;95939.28;5095885;28;20052;-73
2021/06/22 05:00:45;;;;;;;2.70;2.05;;;;;;;17.85;88.94;95947.78;5081749;28;20487;-72
2021/06/22 05:03:12;;;;;;;2.78;2.00;;;;;;;17.85;89.29;95950.44;5096471;28;20047;-73
2021/06/22 05:05:38;;;;;;;3.05;2.72;;;;;;;17.84;89.26;95950.69;5095658;28;20488;-73
2021/06/22 05:08:04;;;;;;;3.10;2.42;;;;;;;17.82;89.19;95948.31;5096990;28;20044;-72
2021/06/22 05:10:31;;;;;;;2.17;2.03;;;;;;;17.84;89.67;95950.69;5096804;28;20484;-73
2021/06/22 05:12:57;;;;;;;2.45;2.25;;;;;;;17.89;89.82;95963.13;5095548;28;20052;-73
2021/06/22 05:15:23;;;;;;;2.70;2.50;;;;;;;17.92;89.68;95954.63;5095947;28;20043;-74
2021/06/22 05:17:49;;;;;;;3.55;2.85;;;;;;;17.91;89.76;95968.94;5095288;28;20040;-73
2021/06/22 05:20:15;;;;;;;6.63;3.08;;;;;;;17.92;90.02;95963.38;5095893;28;20048;-73
2021/06/22 05:22:42;;;;;;;2.90;2.58;;;;;;;17.92;90.14;95970.53;5096024;28;20036;-73
2021/06/22 05:25:09;;;;;;;2.65;2.38;;;;;;;17.92;89.97;95975.84;5095744;28;20476;-73
2021/06/22 05:27:35;;;;;;;2.95;2.33;;;;;;;17.92;90.47;95966.03;5096382;28;20051;-73
2021/06/22 05:30:03;;;;;;;3.20;2.42;;;;;;;17.96;90.43;95963.63;5095736;28;20036;-73
2021/06/22 05:32:29;;;;;;;3.13;2.47;;;;;;;17.98;90.50;95964.13;5095605;28;20028;-73
2021/06/22 05:34:55;;;;;;;2.50;2.15;;;;;;;18.01;90.67;95967.00;5095717;28;20035;-73
2021/06/22 05:37:23;;;;;;;2.20;1.90;;;;;;;18.05;90.48;95968.03;5095473;28;20043;-73
2021/06/22 05:39:50;;;;;;;2.35;1.63;;;;;;;18.10;90.04;95980.50;5095217;28;20059;-72
2021/06/22 05:42:16;;;;;;;2.00;1.83;;;;;;;18.13;90.09;95979.94;5095452;28;20040;-72
2021/06/22 05:44:42;;;;;;;2.80;1.70;;;;;;;18.12;89.76;95967.75;5095129;28;20039;-72
2021/06/22 05:47:09;;;;;;;2.88;1.90;;;;;;;18.14;89.88;95967.44;5095660;28;20042;-72
2021/06/22 05:49:35;;;;;;;4.35;2.08;;;;;;;18.15;89.67;95969.84;5093936;28;20456;-73
2021/06/22 05:52:03;;;;;;;1.75;1.60;;;;;;;18.20;89.55;95976.94;5095048;28;20044;-73
2021/06/22 05:54:29;;;;;;;1.90;1.63;;;;;;;18.23;89.49;95982.50;5094774;28;20499;-72
2021/06/22 05:56:55;;;;;;;2.88;1.80;;;;;;;18.25;89.22;95993.63;5093975;28;20523;-73
2021/06/22 05:59:21;;;;;;;1.83;1.63;;;;;;;18.29;89.23;95998.38;5095520;28;20032;-72
2021/06/22 06:01:47;;;;;;;1.95;1.67;;;;;;;18.28;88.89;96007.44;5095192;28;20047;-73
2021/06/22 06:04:14;;;;;;;2.33;1.75;;;;;;;18.27;88.89;95998.69;5095174;28;20052;-73
2021/06/22 06:06:41;;;;;;;1.80;1.25;;;;;;;18.28;88.83;95989.63;5095230;28;20039;-72
2021/06/22 06:09:07;;;;;;;1.70;1.50;;;;;;;18.31;88.51;95993.59;5094967;28;20055;-72
2021/06/22 06:11:33;;;;;;;1.98;1.60;;;;;;;18.36;88.51;95996.22;5095297;28;20046;-72
2021/06/22 06:14:00;;;;;;;3.30;1.30;;;;;;;18.41;88.29;95999.59;5095332;28;20039;-72
2021/06/22 06:16:27;;;;;;;1.50;1.27;;;;;;;18.43;87.94;95997.47;5076998;28;20040;-72
2021/06/22 06:18:53;;;;;;;2.42;1.70;;;;;;;18.48;87.51;95998.47;5095483;28;20480;-72
2021/06/22 06:21:20;;;;;;;1.38;1.20;;;;;;;18.52;87.49;95996.84;5094227;28;20048;-72
2021/06/22 06:23:49;;;;;;;1.52;1.42;;;;;;;18.57;87.46;95996.81;5095156;28;20036;-72
2021/06/22 06:26:18;;;;;;;1.35;1.25;;;;;;;18.66;87.39;96000.44;5094719;28;20043;-72
2021/06/22 06:28:49;;;;;;;2.75;1.50;;;;;;;18.79;87.09;95993.72;5094692;28;20400;-72
2021/06/22 06:31:16;;;;;;;2.17;1.63;;;;;;;18.93;86.72;95988.53;5093274;28;20043;-73
2021/06/22 06:33:42;;;;;;;1.67;1.45;;;;;;;19.04;86.29;95997.97;5094468;28;20479;-73
2021/06/22 06:36:08;;;;;;;2.10;1.30;;;;;;;19.10;85.75;96004.81;5094659;28;20032;-73
2021/06/22 06:38:35;;;;;;;1.67;1.42;;;;;;;19.14;85.36;96005.84;5094632;28;20032;-73
2021/06/22 06:41:01;;;;;;;2.10;1.90;;;;;;;19.26;85.37;96000.91;5093307;28;20039;-73
2021/06/22 06:43:27;;;;;;;1.88;1.20;;;;;;;19.73;85.49;96003.81;5094366;28;20044;-73
2021/06/22 06:45:53;;;;;;;3.15;1.50;;;;;;;20.34;84.08;96009.31;5094160;28;20051;-73
2021/06/22 06:48:20;;;;;;;2.55;1.30;;;;;;;20.53;81.85;96014.59;5084145;28;20114;-73
2021/06/22 06:50:47;;;;;;;2.15;1.20;;;;;;;20.50;80.86;96023.19;5093609;28;20036;-73
2021/06/22 06:53:13;;;;;;;1.50;1.40;;;;;;;20.39;80.09;96036.66;5094206;28;20039;-74
2021/06/22 06:55:42;;;;;;;1.77;1.10;;;;;;;20.27;80.26;96052.28;5093768;28;20040;-74
2021/06/22 06:58:09;;;;;;;1.90;1.15;;;;;;;20.10;79.80;96065.31;5093724;28;20055;-74
2021/06/22 07:00:38;;;;;;;1.73;1.20;;;;;;;19.96;80.37;96071.34;5093480;28;20052;-74
2021/06/22 07:03:05;;;;;;;1.10;1.10;;;;;;;19.85;80.57;96067.25;5080202;28;20055;-73
2021/06/22 07:05:33;;;;;;;1.35;1.25;;;;;;;19.76;80.43;96068.94;5092552;28;20396;-73
2021/06/22 07:08:00;;;;;;;1.20;1.10;;;;;;;19.70;80.21;96072.72;5094142;28;20043;-73
2021/06/22 07:10:29;;;;;;;1.15;1.02;;;;;;;19.68;80.41;96070.34;5093266;28;20036;-74
2021/06/22 07:12:57;;;;;;;1.00;1.00;;;;;;;19.73;80.50;96078.28;5083252;28;20028;-73
2021/06/22 07:15:25;;;;;;;1.02;0.80;;;;;;;19.76;80.09;96075.06;5093770;28;20043;-74
2021/06/22 07:17:52;;;;;;;1.00;1.00;;;;;;;19.83;79.84;96074.72;5093439;28;20048;-73
2021/06/22 07:20:18;;;;;;;1.65;1.10;;;;;;;19.92;79.62;96077.53;5094187;28;20487;-73
2021/06/22 07:22:45;;;;;;;1.30;1.20;;;;;;;20.05;79.04;96074.16;5093771;28;20476;-73
2021/06/22 07:25:11;;;;;;;1.45;0.90;;;;;;;20.18;78.78;96077.97;5093166;28;20043;-73
2021/06/22 07:27:37;;;;;;;1.45;0.75;;;;;;;20.21;78.12;96078.19;5093840;28;20428;-73
2021/06/22 07:30:04;;;;;;;1.10;1.00;;;;;;;20.22;78.02;96082.44;5093704;28;20036;-73
2021/06/22 07:32:30;;;;;;;1.15;1.00;;;;;;;20.20;77.78;96081.94;5093549;28;20399;-74
2021/06/22 07:34:57;;;;;;;1.15;0.90;;;;;;;20.15;77.14;96081.22;5094205;28;20460;-73
2021/06/22 07:37:23;;;;;;;1.05;1.05;;;;;;;20.15;77.16;96078.56;5092963;28;20400;-73
2021/06/22 07:39:49;;;;;;;2.08;1.20;;;;;;;20.20;77.39;96071.28;5093316;28;20044;-74
2021/06/22 07:42:16;;;;;;;2.58;1.38;;;;;;;20.28;77.26;96077.81;5093109;28;20058;-73
2021/06/22 07:44:42;;;;;;;0.95;0.88;;;;;;;20.37;77.02;96078.75;5093755;28;20055;-73
2021/06/22 07:47:09;;;;;;;1.50;1.20;;;;;;;20.44;76.50;96089.84;5093301;28;20499;-73
2021/06/22 07:49:35;;;;;;;0.85;0.85;;;;;;;20.35;75.69;96085.44;5092535;28;20043;-73
2021/06/22 07:52:01;;;;;;;0.98;0.80;;;;;;;20.36;75.67;96087.03;5093337;28;20051;-73
2021/06/22 07:54:28;;;;;;;0.70;0.70;;;;;;;20.42;75.71;96076.00;5092954;28;20064;-73
2021/06/22 07:56:54;;;;;;;0.70;0.70;;;;;;;20.54;75.48;96082.78;5093425;28;20040;-74
2021/06/22 07:59:20;;;;;;;1.73;0.80;;;;;;;20.80;75.08;96075.97;5093146;28;20387;-72
2021/06/22 08:01:47;;;;;;;2.40;0.90;;;;;;;21.01;74.22;96075.63;5093700;28;20040;-73
2021/06/22 08:04:14;;;;;;;1.17;1.08;;;;;;;20.96;73.16;96073.06;5093036;28;20040;-73
2021/06/22 08:06:40;;;;;;;1.30;0.98;;;;;;;20.68;72.07;96068.44;5093265;28;20023;-72
2021/06/22 08:09:06;;;;;;;1.27;0.77;;;;;;;20.54;72.17;96064.91;5092871;28;20032;-72
2021/06/22 08:11:33;;;;;;;0.95;0.90;;;;;;;20.54;72.64;96059.59;5093376;28;20036;-73
2021/06/22 08:13:59;;;;;;;0.60;0.60;;;;;;;20.55;72.30;96058.50;5093268;28;20365;-73
2021/06/22 08:16:25;;;;;;;0.60;0.60;;;;;;;20.40;71.38;96069.41;5093225;28;20039;-72
2021/06/22 08:18:51;;;;;;;0.85;0.70;;;;;;;20.31;71.28;96079.13;5093258;28;20047;-72
2021/06/22 08:21:18;;;;;;;0.88;0.80;;;;;;;20.31;71.62;96071.16;5093201;28;20574;-73
2021/06/22 08:23:44;;;;;;;0.80;0.80;;;;;;;20.33;71.86;96076.97;5092610;28;20040;-73
2021/06/22 08:26:11;;;;;;;1.08;1.00;;;;;;;20.34;71.83;96071.34;5091767;28;20040;-73
2021/06/22 08:28:37;;;;;;;0.80;0.80;;;;;;;20.37;72.21;96067.31;5092983;28;20039;-73
2021/06/22 08:31:04;;;;;;;1.15;1.00;;;;;;;20.37;72.44;96060.13;5092811;28;20134;-73
2021/06/22 08:33:30;;;;;;;1.00;0.90;;;;;;;20.37;72.34;96053.97;5093115;28;20392;-73
2021/06/22 08:35:56;;;;;;;1.50;0.90;;;;;;;20.40;72.73;96064.84;5092910;28;20040;-73
2021/06/22 08:38:22;;;;;;;1.77;1.20;;;;;;;20.60;72.93;96062.97;5091358;28;20032;-73
2021/06/22 08:40:49;;;;;;;1.77;1.10;;;;;;;20.81;72.97;96063.44;5092767;28;20055;-73
2021/06/22 08:43:16;;;;;;;1.10;1.00;;;;;;;20.88;72.43;96072.63;5092388;28;20051;-73
2021/06/22 08:45:44;;;;;;;1.20;1.00;;;;;;;20.91;72.33;96076.59;5092799;28;20050;-73
2021/06/22 08:48:11;;;;;;;0.98;0.98;;;;;;;20.93;72.42;96081.63;5092462;28;20044;-73
2021/06/22 08:50:39;;;;;;;0.80;0.80;;;;;;;20.91;72.41;96075.81;5092566;28;20464;-73
2021/06/22 08:53:06;;;;;;;1.58;1.05;;;;;;;20.73;72.34;96072.13;5094006;28;20047;-73
2021/06/22 08:55:33;;;;;;;1.60;0.95;;;;;;;20.73;72.96;96078.22;5095687;28;20051;-73
2021/06/22 08:58:10;;;;;;;1.20;1.10;;;;;;;20.80;73.31;96077.84;5096375;28;20044;-74
2021/06/22 09:00:39;;;;;;;1.20;1.10;;;;;;;20.87;73.25;96067.59;5081939;28;20039;-73
2021/06/22 09:03:14;;;;;;;1.27;1.15;;;;;;;20.93;72.05;96070.97;5096395;28;20032;-74
2021/06/22 09:05:46;;;;;;;1.33;1.10;;;;;;;20.94;72.35;96076.00;5095632;28;20044;-73
2021/06/22 09:08:16;;;;;;;0.80;0.80;;;;;;;20.95;72.31;96087.47;5097102;28;20480;-73
2021/06/22 09:10:42;;;;;;;1.13;1.10;;;;;;;20.94;72.52;96085.91;5096023;28;20032;-73
2021/06/22 09:13:11;;;;;;;1.17;0.98;;;;;;;20.90;72.45;96093.69;5095689;28;20424;-73
2021/06/22 09:15:39;;;;;;;1.40;1.00;;;;;;;20.85;72.42;96099.88;5096029;28;20036;-74
2021/06/22 09:18:29;;;;;;;1.63;0.98;;;;;;;20.71;72.18;96107.03;5095824;28;20481;-73
2021/06/22 09:21:25;;;;;;;3.10;1.10;;;;;;;20.57;72.60;96117.59;5096656;28;20036;-73
2021/06/22 09:23:54;;;;;;;1.20;1.10;;;;;;;20.44;72.98;96113.03;5083555;28;20036;-73
2021/06/22 09:26:26;;;;;;;2.13;1.08;;;;;;;20.36;73.01;96113.66;5095750;28;20032;-73
2021/06/22 09:29:04;;;;;;;1.35;0.95;;;;;;;20.28;73.34;96101.78;5095902;28;20094;-73
2021/06/22 09:31:30;;;;;;;1.08;1.08;;;;;;;20.21;73.76;96110.13;5096140;28;20032;-74
2021/06/22 09:33:58;;;;;;;1.05;0.93;;;;;;;20.19;73.94;96106.19;5095863;28;20047;-73
2021/06/22 09:36:27;;;;;;;1.70;1.10;;;;;;;20.14;73.88;96098.25;5095546;28;20407;-74
2021/06/22 09:38:54;;;;;;;0.90;0.88;;;;;;;20.01;73.57;96102.41;5095644;28;20044;-73
2021/06/22 09:41:28;;;;;;;0.73;0.73;;;;;;;19.90;73.81;96107.09;5095786;28;20388;-72
2021/06/22 09:44:12;;;;;;;1.98;1.15;;;;;;;19.76;74.70;96104.34;5095463;28;20048;-72
2021/06/22 09:46:40;;;;;;;3.78;0.93;;;;;;;19.66;74.40;96097.25;5095141;28;20040;-72
2021/06/22 09:49:09;;;;;;;2.75;1.10;;;;;;;19.57;74.89;96106.94;5095613;28;20036;-71
2021/06/22 09:52:26;;;;;;;2.83;1.30;;;;;;;19.48;75.64;96117.38;5095220;28;20380;-71
2021/06/22 09:54:49;;;;;;;3.17;0.98;;;;;;;19.41;75.73;96118.81;5079456;28;20055;-71
2021/06/22 09:57:18;;;;;;;1.10;0.95;;;;;;;19.41;76.39;96122.25;5095460;28;20048;-72
2021/06/22 10:00:05;;;;;;;1.15;1.05;;;;;;;19.43;77.66;96129.97;5095392;28;20047;-72
2021/06/22 10:02:48;;;;;;;1.65;1.00;;;;;;;19.45;77.57;96130.47;5095101;28;20063;-72
2021/06/22 10:05:16;;;;;;;2.28;1.15;;;;;;;19.46;76.65;96130.19;5094996;28;20050;-71
2021/06/22 10:07:42;;;;;;;1.30;1.10;;;;;;;19.52;76.73;96138.88;5094831;28;20047;-72
2021/06/22 10:10:09;;;;;;;0.85;0.80;;;;;;;19.58;77.08;96153.72;5094490;28;20469;-72
2021/06/22 10:12:41;;;;;;;1.65;1.10;;;;;;;19.66;77.27;96163.75;5095453;28;20036;-71
2021/06/22 10:15:08;;;;;;;1.30;1.00;;;;;;;19.68;77.22;96148.28;5095218;28;20028;-71
2021/06/22 10:17:34;;;;;;;1.35;1.17;;;;;;;19.80;77.30;96158.59;5094808;28;20043;-71
2021/06/22 10:20:05;;;;;;;1.38;1.23;;;;;;;19.89;77.80;96164.06;5094757;28;20036;-72
2021/06/22 10:22:34;;;;;;;2.75;1.20;;;;;;;20.00;77.48;96159.41;5081669;28;20032;-72
2021/06/22 10:25:02;;;;;;;1.23;1.13;;;;;;;20.15;77.67;96153.88;5095090;28;20036;-72
2021/06/22 10:27:29;;;;;;;1.52;1.17;;;;;;;20.34;77.38;96148.56;5094214;28;20488;-72
2021/06/22 10:30:00;;;;;;;2.63;1.15;;;;;;;20.51;77.37;96141.94;5094420;28;20047;-72
2021/06/22 10:32:27;;;;;;;2.17;1.25;;;;;;;20.62;76.70;96144.22;5094681;28;20044;-72
2021/06/22 10:35:06;;;;;;;2.75;1.30;;;;;;;20.78;77.11;96141.31;5094252;28;20043;-73
2021/06/22 10:37:37;;;;;;;0.82;0.80;;;;;;;20.87;75.79;96155.53;5095083;28;20396;-73
2021/06/22 10:40:25;;;;;;;1.83;1.10;;;;;;;20.92;75.07;96149.38;5094312;28;20075;-73
2021/06/22 10:42:55;;;;;;;1.50;1.08;;;;;;;20.99;75.63;96160.44;5094243;28;20519;-73
2021/06/22 10:45:22;;;;;;;1.35;1.10;;;;;;;21.11;75.22;96158.09;5093923;28;20043;-73
2021/06/22 10:47:49;;;;;;;0.98;0.93;;;;;;;21.23;75.09;96161.09;5094867;28;20036;-73
2021/06/22 10:50:22;;;;;;;0.90;0.90;;;;;;;21.33;74.46;96164.66;5094300;28;20385;-72
2021/06/22 10:52:54;;;;;;;1.10;1.10;;;;;;;21.44;74.32;96169.56;5094243;28;20039;-72
2021/06/22 10:55:27;;;;;;;1.63;1.10;;;;;;;21.47;73.77;96170.84;5093546;28;20071;-73
2021/06/22 10:57:56;;;;;;;1.17;1.03;;;;;;;21.41;73.49;96169.31;5093988;28;20048;-73
2021/06/22 11:00:31;;;;;;;1.10;1.10;;;;;;;21.36;72.61;96166.75;5093925;28;20491;-73
2021/06/22 11:03:07;;;;;;;1.02;0.80;;;;;;;21.28;72.54;96170.88;5094286;28;20028;-73
2021/06/22 11:05:43;;;;;;;1.17;1.08;;;;;;;21.18;71.86;96173.72;5077960;28;20541;-73
2021/06/22 11:08:12;;;;;;;0.63;0.63;;;;;;;21.10;72.87;96172.50;5094205;28;20040;-73
2021/06/22 11:10:42;;;;;;;0.70;0.70;;;;;;;21.06;73.06;96169.66;5094150;28;20046;-73
2021/06/22 11:13:44;;;;;;;1.10;0.75;;;;;;;20.97;69.73;96168.72;5093839;28;20035;-73
2021/06/22 11:16:13;;;;;;;0.93;0.80;;;;;;;20.76;70.88;96176.22;5083136;28;20024;-73
2021/06/22 11:18:54;;;;;;;0.82;0.80;;;;;;;20.61;69.96;96171.16;5093528;28;20098;-73
2021/06/22 11:21:22;;;;;;;0.70;0.63;;;;;;;20.47;71.65;96163.03;5093807;28;20032;-73
2021/06/22 11:24:04;;;;;;;0.47;0.47;;;;;;;20.36;69.95;96167.72;5094267;28;20036;-73
2021/06/22 11:26:54;;;;;;;0.77;0.60;;;;;;;20.30;70.89;96166.19;5093683;28;20047;-73
2021/06/22 11:29:42;;;;;;;0.63;0.63;;;;;;;20.31;70.70;96161.69;5093349;28;20032;-73
2021/06/22 11:32:09;;;;;;;0.70;0.70;;;;;;;20.35;70.72;96158.16;5093048;28;20051;-74
2021/06/22 11:34:52;;;;;;;2.35;1.38;;;;;;;20.40;71.71;96160.75;5092287;28;20036;-73
2021/06/22 11:37:23;;;;;;;2.00;1.80;;;;;;;20.40;72.17;96166.06;5093456;28;20039;-73
2021/06/22 11:40:20;;;;;;;1.80;1.70;;;;;;;20.34;73.13;96175.19;5093752;28;20043;-73